JBU217 KBOS-KJFK
Flight info
| Callsign | JBU217 |
|---|---|
| Flight time | 0h 45m |
| Altitude | 18000 |
| Route | SSOXS7 SSOXS BUZRD SEY PARCH4 |
| Aircraft | A320/M-SDE3FGHIRWY/LB1 |
Departure
| Time | 2026-05-07 16:21 |
|---|---|
| Airport | Boston Logan International Airport (KBOS) |
Arrival
| Time | 2026-05-07 17:07 |
|---|---|
| Airport | John F. Kennedy International Airport (KJFK) |
| Time | Latitude | Longitude | Altitude | Speed | Heading |
|---|---|---|---|---|---|
| 2026-05-07 15:38 | 42.36550 | -71.01410 | 27 ft | 0 kts | 328° |
| 2026-05-07 16:07 | 42.36548 | -71.01409 | 26 ft | 2 kts | 328° |
| 2026-05-07 16:07 | 42.36534 | -71.01397 | 27 ft | 2 kts | 327° |
| 2026-05-07 16:08 | 42.36520 | -71.01385 | 28 ft | 2 kts | 326° |
| 2026-05-07 16:08 | 42.36506 | -71.01373 | 26 ft | 2 kts | 314° |
| 2026-05-07 16:08 | 42.36499 | -71.01353 | 27 ft | 2 kts | 236° |
| 2026-05-07 16:08 | 42.36507 | -71.01341 | 26 ft | 1 kts | 207° |
| 2026-05-07 16:09 | 42.36509 | -71.01340 | 26 ft | 0 kts | 205° |
| 2026-05-07 16:13 | 42.36505 | -71.01342 | 26 ft | 1 kts | 205° |
| 2026-05-07 16:14 | 42.36490 | -71.01351 | 27 ft | 3 kts | 204° |
| 2026-05-07 16:14 | 42.36464 | -71.01366 | 24 ft | 5 kts | 202° |
| 2026-05-07 16:14 | 42.36422 | -71.01389 | 24 ft | 8 kts | 202° |
| 2026-05-07 16:14 | 42.36366 | -71.01377 | 24 ft | 10 kts | 131° |
| 2026-05-07 16:15 | 42.36329 | -71.01297 | 26 ft | 9 kts | 122° |
| 2026-05-07 16:15 | 42.36295 | -71.01224 | 28 ft | 9 kts | 122° |
| 2026-05-07 16:15 | 42.36260 | -71.01140 | 27 ft | 12 kts | 116° |
| 2026-05-07 16:15 | 42.36221 | -71.01025 | 30 ft | 15 kts | 113° |
| 2026-05-07 16:16 | 42.36175 | -71.00886 | 26 ft | 17 kts | 114° |
| 2026-05-07 16:16 | 42.36119 | -71.00718 | 22 ft | 22 kts | 112° |
| 2026-05-07 16:16 | 42.36078 | -71.00546 | 24 ft | 17 kts | 108° |
| 2026-05-07 16:16 | 42.36040 | -71.00399 | 26 ft | 17 kts | 109° |
| 2026-05-07 16:17 | 42.36002 | -71.00247 | 28 ft | 17 kts | 108° |
| 2026-05-07 16:17 | 42.35963 | -71.00088 | 29 ft | 19 kts | 108° |
| 2026-05-07 16:17 | 42.35965 | -70.99914 | 29 ft | 20 kts | 75° |
| 2026-05-07 16:17 | 42.35990 | -70.99732 | 30 ft | 21 kts | 81° |
| 2026-05-07 16:18 | 42.36023 | -70.99520 | 27 ft | 25 kts | 75° |
| 2026-05-07 16:18 | 42.36073 | -70.99281 | 23 ft | 28 kts | 77° |
| 2026-05-07 16:18 | 42.36106 | -70.99097 | 22 ft | 19 kts | 76° |
| 2026-05-07 16:18 | 42.36126 | -70.98983 | 24 ft | 10 kts | 76° |
| 2026-05-07 16:19 | 42.36141 | -70.98889 | 24 ft | 10 kts | 84° |
| 2026-05-07 16:19 | 42.36103 | -70.98835 | 24 ft | 3 kts | 161° |
| 2026-05-07 16:19 | 42.36069 | -70.98824 | 22 ft | 7 kts | 168° |
| 2026-05-07 16:19 | 42.36034 | -70.98815 | 22 ft | 4 kts | 169° |
| 2026-05-07 16:20 | 42.36012 | -70.98839 | 22 ft | 6 kts | 252° |
| 2026-05-07 16:20 | 42.36007 | -70.98866 | 21 ft | 0 kts | 256° |
| 2026-05-07 16:20 | 42.35997 | -70.98921 | 20 ft | 28 kts | 256° |
| 2026-05-07 16:21 | 42.35891 | -70.99526 | 26 ft | 100 kts | 257° |
| 2026-05-07 16:21 | 42.35685 | -71.00696 | 44 ft | 151 kts | 257° |
| 2026-05-07 16:21 | 42.35454 | -71.02104 | 400 ft | 162 kts | 258° |
| 2026-05-07 16:21 | 42.35176 | -71.03627 | 876 ft | 173 kts | 248° |
| 2026-05-07 16:22 | 42.34436 | -71.04880 | 1548 ft | 174 kts | 217° |
| 2026-05-07 16:22 | 42.33422 | -71.05834 | 2048 ft | 184 kts | 216° |
| 2026-05-07 16:22 | 42.32349 | -71.06882 | 2520 ft | 195 kts | 216° |
| 2026-05-07 16:22 | 42.31265 | -71.08043 | 3097 ft | 202 kts | 224° |
| 2026-05-07 16:23 | 42.30229 | -71.09391 | 3637 ft | 214 kts | 225° |
| 2026-05-07 16:23 | 42.29112 | -71.10857 | 4066 ft | 234 kts | 224° |
| 2026-05-07 16:23 | 42.27756 | -71.12137 | 4534 ft | 252 kts | 199° |
| 2026-05-07 16:23 | 42.25956 | -71.12376 | 5030 ft | 271 kts | 173° |
| 2026-05-07 16:24 | 42.24103 | -71.11616 | 5600 ft | 288 kts | 154° |
| 2026-05-07 16:24 | 42.22361 | -71.10164 | 6197 ft | 301 kts | 147° |
| 2026-05-07 16:24 | 42.20560 | -71.08652 | 6953 ft | 302 kts | 154° |
| 2026-05-07 16:24 | 42.18747 | -71.07418 | 8251 ft | 288 kts | 147° |
| 2026-05-07 16:25 | 42.17114 | -71.05860 | 9163 ft | 287 kts | 144° |
| 2026-05-07 16:25 | 42.15493 | -71.04270 | 9961 ft | 289 kts | 144° |
| 2026-05-07 16:25 | 42.13838 | -71.02658 | 10490 ft | 303 kts | 145° |
| 2026-05-07 16:25 | 42.12074 | -71.00988 | 10685 ft | 325 kts | 145° |
| 2026-05-07 16:26 | 42.10179 | -70.99223 | 11157 ft | 335 kts | 146° |
| 2026-05-07 16:26 | 42.08246 | -70.97429 | 11804 ft | 340 kts | 146° |
| 2026-05-07 16:26 | 42.06290 | -70.95613 | 12465 ft | 343 kts | 146° |
| 2026-05-07 16:26 | 42.04958 | -70.94377 | 12911 ft | 345 kts | 146° |
| 2026-05-07 16:27 | 42.02321 | -70.91928 | 13765 ft | 350 kts | 146° |
| 2026-05-07 16:27 | 42.00310 | -70.90056 | 14071 ft | 353 kts | 145° |
| 2026-05-07 16:27 | 41.98293 | -70.88175 | 14156 ft | 353 kts | 145° |
| 2026-05-07 16:27 | 41.96278 | -70.86295 | 14165 ft | 353 kts | 146° |
| 2026-05-07 16:28 | 41.94259 | -70.84421 | 14166 ft | 353 kts | 146° |
| 2026-05-07 16:28 | 41.92261 | -70.82574 | 14410 ft | 355 kts | 146° |
| 2026-05-07 16:28 | 41.90219 | -70.80686 | 15084 ft | 357 kts | 146° |
| 2026-05-07 16:28 | 41.88148 | -70.78820 | 15695 ft | 360 kts | 150° |
| 2026-05-07 16:29 | 41.85838 | -70.77500 | 16255 ft | 363 kts | 165° |
| 2026-05-07 16:29 | 41.83342 | -70.76994 | 16816 ft | 365 kts | 179° |
| 2026-05-07 16:29 | 41.80811 | -70.77344 | 17372 ft | 368 kts | 194° |
| 2026-05-07 16:29 | 41.78418 | -70.78567 | 17911 ft | 371 kts | 208° |
| 2026-05-07 16:30 | 41.76161 | -70.80258 | 18118 ft | 372 kts | 210° |
| 2026-05-07 16:30 | 41.73897 | -70.81969 | 18166 ft | 387 kts | 210° |
| 2026-05-07 16:30 | 41.71526 | -70.83758 | 18166 ft | 394 kts | 210° |
| 2026-05-07 16:30 | 41.69129 | -70.85560 | 18166 ft | 396 kts | 210° |
| 2026-05-07 16:31 | 41.66727 | -70.87361 | 18165 ft | 396 kts | 210° |
| 2026-05-07 16:31 | 41.64324 | -70.89162 | 18166 ft | 396 kts | 209° |
| 2026-05-07 16:31 | 41.61917 | -70.90963 | 18165 ft | 396 kts | 209° |
| 2026-05-07 16:31 | 41.59512 | -70.92759 | 18165 ft | 396 kts | 209° |
| 2026-05-07 16:32 | 41.57107 | -70.94556 | 18166 ft | 396 kts | 210° |
| 2026-05-07 16:32 | 41.54870 | -70.96602 | 18166 ft | 396 kts | 220° |
| 2026-05-07 16:32 | 41.52907 | -70.99170 | 18165 ft | 395 kts | 230° |
| 2026-05-07 16:32 | 41.51171 | -71.02015 | 18167 ft | 395 kts | 231° |
| 2026-05-07 16:33 | 41.49436 | -71.04862 | 18168 ft | 396 kts | 231° |
| 2026-05-07 16:33 | 41.47696 | -71.07702 | 18168 ft | 396 kts | 231° |
| 2026-05-07 16:33 | 41.45950 | -71.10541 | 18170 ft | 396 kts | 231° |
| 2026-05-07 16:33 | 41.44201 | -71.13375 | 18170 ft | 396 kts | 231° |
| 2026-05-07 16:34 | 41.42451 | -71.16204 | 18172 ft | 396 kts | 231° |
| 2026-05-07 16:34 | 41.40698 | -71.19034 | 18172 ft | 396 kts | 231° |
| 2026-05-07 16:34 | 41.38968 | -71.21825 | 18174 ft | 396 kts | 231° |
| 2026-05-07 16:34 | 41.37219 | -71.24652 | 18173 ft | 396 kts | 231° |
| 2026-05-07 16:35 | 41.35468 | -71.27484 | 18176 ft | 396 kts | 231° |
| 2026-05-07 16:35 | 41.33720 | -71.30314 | 18176 ft | 396 kts | 231° |
| 2026-05-07 16:35 | 41.31972 | -71.33144 | 18176 ft | 396 kts | 231° |
| 2026-05-07 16:35 | 41.30223 | -71.35968 | 18174 ft | 396 kts | 231° |
| 2026-05-07 16:36 | 41.28469 | -71.38791 | 18175 ft | 396 kts | 231° |
| 2026-05-07 16:36 | 41.26716 | -71.41610 | 18177 ft | 396 kts | 231° |
| 2026-05-07 16:36 | 41.24966 | -71.44429 | 18177 ft | 396 kts | 231° |
| 2026-05-07 16:36 | 41.23231 | -71.47216 | 18179 ft | 396 kts | 230° |
| 2026-05-07 16:37 | 41.21474 | -71.50035 | 18180 ft | 396 kts | 230° |
| 2026-05-07 16:37 | 41.19716 | -71.52855 | 18180 ft | 396 kts | 230° |
| 2026-05-07 16:37 | 41.18081 | -71.55796 | 18179 ft | 396 kts | 239° |
| 2026-05-07 16:37 | 41.16866 | -71.59066 | 18180 ft | 396 kts | 249° |
| 2026-05-07 16:38 | 41.16123 | -71.62575 | 18180 ft | 395 kts | 260° |
| 2026-05-07 16:38 | 41.15689 | -71.66173 | 18178 ft | 395 kts | 261° |
| 2026-05-07 16:38 | 41.15254 | -71.69775 | 18177 ft | 395 kts | 261° |
| 2026-05-07 16:38 | 41.14815 | -71.73324 | 18180 ft | 395 kts | 261° |
| 2026-05-07 16:39 | 41.14361 | -71.76924 | 18181 ft | 396 kts | 261° |
| 2026-05-07 16:39 | 41.13907 | -71.80523 | 18180 ft | 396 kts | 261° |
| 2026-05-07 16:39 | 41.13454 | -71.84119 | 18181 ft | 395 kts | 261° |
| 2026-05-07 16:39 | 41.13003 | -71.87717 | 18181 ft | 395 kts | 261° |
| 2026-05-07 16:40 | 41.12552 | -71.91316 | 18182 ft | 395 kts | 261° |
| 2026-05-07 16:40 | 41.12100 | -71.94914 | 18182 ft | 395 kts | 261° |
| 2026-05-07 16:40 | 41.11647 | -71.98510 | 18182 ft | 395 kts | 261° |
| 2026-05-07 16:40 | 41.11198 | -72.02057 | 18182 ft | 395 kts | 260° |
| 2026-05-07 16:41 | 41.10739 | -72.05654 | 18182 ft | 395 kts | 260° |
| 2026-05-07 16:41 | 41.10280 | -72.09247 | 18182 ft | 396 kts | 260° |
| 2026-05-07 16:41 | 41.09732 | -72.12801 | 18172 ft | 388 kts | 254° |
| 2026-05-07 16:41 | 41.08926 | -72.16145 | 18036 ft | 374 kts | 252° |
| 2026-05-07 16:42 | 41.08123 | -72.19389 | 17656 ft | 368 kts | 252° |
| 2026-05-07 16:42 | 41.07328 | -72.22594 | 17197 ft | 364 kts | 252° |
| 2026-05-07 16:42 | 41.06542 | -72.25767 | 16712 ft | 361 kts | 252° |
| 2026-05-07 16:42 | 41.05759 | -72.28921 | 16225 ft | 359 kts | 252° |
| 2026-05-07 16:43 | 41.04980 | -72.32043 | 15746 ft | 356 kts | 252° |
| 2026-05-07 16:43 | 41.04215 | -72.35105 | 15274 ft | 354 kts | 252° |
| 2026-05-07 16:43 | 41.03447 | -72.38184 | 14798 ft | 351 kts | 252° |
| 2026-05-07 16:43 | 41.02683 | -72.41246 | 14316 ft | 349 kts | 252° |
| 2026-05-07 16:44 | 41.01928 | -72.44281 | 13840 ft | 346 kts | 252° |
| 2026-05-07 16:44 | 41.01176 | -72.47296 | 13367 ft | 344 kts | 252° |
| 2026-05-07 16:44 | 41.00429 | -72.50289 | 12897 ft | 341 kts | 252° |
| 2026-05-07 16:44 | 40.99686 | -72.53264 | 12425 ft | 339 kts | 252° |
| 2026-05-07 16:45 | 40.98947 | -72.56210 | 12115 ft | 336 kts | 252° |
| 2026-05-07 16:45 | 40.98207 | -72.59153 | 12075 ft | 338 kts | 251° |
| 2026-05-07 16:45 | 40.97464 | -72.62103 | 12082 ft | 339 kts | 251° |
| 2026-05-07 16:45 | 40.96716 | -72.65058 | 12083 ft | 339 kts | 251° |
| 2026-05-07 16:46 | 40.95966 | -72.68015 | 12083 ft | 339 kts | 251° |
| 2026-05-07 16:46 | 40.95227 | -72.70930 | 12083 ft | 339 kts | 251° |
| 2026-05-07 16:46 | 40.94478 | -72.73886 | 12083 ft | 339 kts | 251° |
| 2026-05-07 16:46 | 40.93570 | -72.76758 | 12083 ft | 339 kts | 242° |
| 2026-05-07 16:47 | 40.92322 | -72.79395 | 12081 ft | 339 kts | 233° |
| 2026-05-07 16:47 | 40.90788 | -72.81736 | 11700 ft | 335 kts | 224° |
| 2026-05-07 16:47 | 40.89009 | -72.83703 | 11227 ft | 333 kts | 216° |
| 2026-05-07 16:47 | 40.87131 | -72.85492 | 10750 ft | 331 kts | 216° |
| 2026-05-07 16:48 | 40.85269 | -72.87272 | 10280 ft | 329 kts | 216° |
| 2026-05-07 16:48 | 40.83427 | -72.89035 | 9968 ft | 323 kts | 216° |
| 2026-05-07 16:48 | 40.81643 | -72.90740 | 9841 ft | 311 kts | 216° |
| 2026-05-07 16:48 | 40.79929 | -72.92375 | 9713 ft | 300 kts | 216° |
| 2026-05-07 16:49 | 40.78289 | -72.93940 | 9589 ft | 291 kts | 216° |
| 2026-05-07 16:49 | 40.76667 | -72.95489 | 9356 ft | 285 kts | 216° |
| 2026-05-07 16:49 | 40.75071 | -72.97018 | 9093 ft | 283 kts | 216° |
| 2026-05-07 16:49 | 40.73479 | -72.98541 | 8760 ft | 282 kts | 216° |
| 2026-05-07 16:50 | 40.71931 | -73.00112 | 8427 ft | 280 kts | 222° |
| 2026-05-07 16:50 | 40.70595 | -73.01971 | 8096 ft | 279 kts | 232° |
| 2026-05-07 16:50 | 40.69520 | -73.04083 | 7768 ft | 277 kts | 241° |
| 2026-05-07 16:50 | 40.68722 | -73.06383 | 7445 ft | 276 kts | 251° |
| 2026-05-07 16:51 | 40.68225 | -73.08781 | 7124 ft | 274 kts | 260° |
| 2026-05-07 16:51 | 40.68004 | -73.11269 | 6799 ft | 273 kts | 265° |
| 2026-05-07 16:51 | 40.67838 | -73.13752 | 6471 ft | 272 kts | 265° |
| 2026-05-07 16:51 | 40.67601 | -73.16218 | 6152 ft | 270 kts | 254° |
| 2026-05-07 16:52 | 40.66797 | -73.18436 | 5829 ft | 269 kts | 239° |
| 2026-05-07 16:52 | 40.65800 | -73.20516 | 5500 ft | 268 kts | 237° |
| 2026-05-07 16:52 | 40.64787 | -73.22574 | 5183 ft | 267 kts | 237° |
| 2026-05-07 16:52 | 40.63776 | -73.24621 | 4865 ft | 266 kts | 237° |
| 2026-05-07 16:53 | 40.62776 | -73.26645 | 4552 ft | 265 kts | 237° |
| 2026-05-07 16:53 | 40.61773 | -73.28675 | 4256 ft | 264 kts | 237° |
| 2026-05-07 16:53 | 40.60778 | -73.30688 | 4088 ft | 262 kts | 237° |
| 2026-05-07 16:53 | 40.59784 | -73.32699 | 4081 ft | 263 kts | 237° |
| 2026-05-07 16:54 | 40.58799 | -73.34693 | 4033 ft | 263 kts | 237° |
| 2026-05-07 16:54 | 40.57806 | -73.36704 | 3719 ft | 262 kts | 237° |
| 2026-05-07 16:54 | 40.56868 | -73.38743 | 3400 ft | 260 kts | 248° |
| 2026-05-07 16:54 | 40.56502 | -73.41044 | 3140 ft | 257 kts | 265° |
| 2026-05-07 16:55 | 40.56386 | -73.43395 | 3076 ft | 258 kts | 267° |
| 2026-05-07 16:55 | 40.56295 | -73.45763 | 3090 ft | 260 kts | 267° |
| 2026-05-07 16:55 | 40.56207 | -73.48132 | 3082 ft | 260 kts | 267° |
| 2026-05-07 16:55 | 40.56121 | -73.50503 | 3086 ft | 260 kts | 267° |
| 2026-05-07 16:56 | 40.56035 | -73.52879 | 3089 ft | 260 kts | 267° |
| 2026-05-07 16:56 | 40.55951 | -73.55216 | 3082 ft | 260 kts | 268° |
| 2026-05-07 16:56 | 40.56930 | -73.59657 | 2862 ft | 263 kts | 301° |
| 2026-05-07 16:57 | 40.57806 | -73.61535 | 2556 ft | 262 kts | 301° |
| 2026-05-07 16:57 | 40.58752 | -73.63570 | 2214 ft | 263 kts | 301° |
| 2026-05-07 16:57 | 40.59708 | -73.65665 | 1860 ft | 264 kts | 301° |
| 2026-05-07 16:57 | 40.60657 | -73.67752 | 1504 ft | 266 kts | 301° |
| 2026-05-07 16:58 | 40.61606 | -73.69838 | 1155 ft | 265 kts | 301° |
| 2026-05-07 16:58 | 40.62493 | -73.71915 | 1167 ft | 256 kts | 291° |
| 2026-05-07 16:58 | 40.62674 | -73.74222 | 1900 ft | 257 kts | 259° |
| 2026-05-07 16:58 | 40.61973 | -73.76369 | 2698 ft | 262 kts | 233° |
| 2026-05-07 16:59 | 40.60625 | -73.77914 | 2975 ft | 262 kts | 211° |
| 2026-05-07 16:59 | 40.58994 | -73.79091 | 3062 ft | 261 kts | 206° |
| 2026-05-07 16:59 | 40.57257 | -73.79698 | 3079 ft | 261 kts | 180° |
| 2026-05-07 16:59 | 40.55644 | -73.79219 | 3083 ft | 262 kts | 153° |
| 2026-05-07 17:00 | 40.54289 | -73.77699 | 3082 ft | 262 kts | 124° |
| 2026-05-07 17:00 | 40.53528 | -73.75525 | 3088 ft | 263 kts | 109° |
| 2026-05-07 17:00 | 40.52965 | -73.73281 | 3077 ft | 251 kts | 108° |
| 2026-05-07 17:00 | 40.52455 | -73.71158 | 3075 ft | 236 kts | 107° |
| 2026-05-07 17:01 | 40.51980 | -73.69166 | 3079 ft | 224 kts | 107° |
| 2026-05-07 17:01 | 40.51674 | -73.67874 | 3057 ft | 222 kts | 107° |
| 2026-05-07 17:01 | 40.51217 | -73.65946 | 2777 ft | 221 kts | 107° |
| 2026-05-07 17:01 | 40.50762 | -73.64024 | 2481 ft | 220 kts | 107° |
| 2026-05-07 17:02 | 40.50309 | -73.62111 | 2193 ft | 219 kts | 107° |
| 2026-05-07 17:02 | 40.49973 | -73.60183 | 2079 ft | 217 kts | 88° |
| 2026-05-07 17:02 | 40.50412 | -73.58318 | 2088 ft | 218 kts | 53° |
| 2026-05-07 17:02 | 40.51546 | -73.57074 | 2080 ft | 211 kts | 22° |
| 2026-05-07 17:03 | 40.52964 | -73.56858 | 2081 ft | 207 kts | 345° |
| 2026-05-07 17:03 | 40.54264 | -73.57589 | 2086 ft | 206 kts | 330° |
| 2026-05-07 17:03 | 40.55496 | -73.58552 | 2118 ft | 207 kts | 328° |
| 2026-05-07 17:03 | 40.56704 | -73.59568 | 2082 ft | 206 kts | 321° |
| 2026-05-07 17:04 | 40.57573 | -73.60975 | 2075 ft | 193 kts | 300° |
| 2026-05-07 17:04 | 40.58249 | -73.62466 | 2079 ft | 188 kts | 300° |
| 2026-05-07 17:04 | 40.58915 | -73.63929 | 2079 ft | 185 kts | 300° |
| 2026-05-07 17:04 | 40.59578 | -73.65383 | 2069 ft | 185 kts | 300° |
| 2026-05-07 17:05 | 40.60240 | -73.66837 | 1736 ft | 183 kts | 300° |
| 2026-05-07 17:05 | 40.60872 | -73.68225 | 1462 ft | 166 kts | 300° |
| 2026-05-07 17:05 | 40.61431 | -73.69454 | 1227 ft | 150 kts | 300° |
| 2026-05-07 17:05 | 40.61947 | -73.70588 | 1034 ft | 144 kts | 300° |
| 2026-05-07 17:06 | 40.62455 | -73.71682 | 846 ft | 141 kts | 301° |
| 2026-05-07 17:06 | 40.62958 | -73.72779 | 721 ft | 141 kts | 300° |
| 2026-05-07 17:06 | 40.63460 | -73.73905 | 659 ft | 143 kts | 299° |
| 2026-05-07 17:06 | 40.63964 | -73.74998 | 423 ft | 141 kts | 301° |
| 2026-05-07 17:07 | 40.64435 | -73.76023 | 93 ft | 142 kts | 300° |
| 2026-05-07 17:07 | 40.64897 | -73.77079 | 19 ft | 114 kts | 300° |
| 2026-05-07 17:07 | 40.65143 | -73.77631 | 17 ft | 27 kts | 301° |
| 2026-05-07 17:07 | 40.65182 | -73.77718 | 18 ft | 22 kts | 300° |
| 2026-05-07 17:08 | 40.65225 | -73.77870 | 19 ft | 6 kts | 266° |
| 2026-05-07 17:08 | 40.65208 | -73.77927 | 19 ft | 8 kts | 230° |
| 2026-05-07 17:08 | 40.65163 | -73.77966 | 21 ft | 7 kts | 210° |
| 2026-05-07 17:08 | 40.65117 | -73.77993 | 22 ft | 8 kts | 188° |
| 2026-05-07 17:09 | 40.65072 | -73.77953 | 22 ft | 10 kts | 123° |
| 2026-05-07 17:09 | 40.65031 | -73.77860 | 20 ft | 14 kts | 120° |
| 2026-05-07 17:09 | 40.64977 | -73.77738 | 20 ft | 16 kts | 120° |
| 2026-05-07 17:09 | 40.64953 | -73.77683 | 21 ft | 0 kts | 120° |